sensor_id;sensor_type;location;lat;lon;timestamp;pressure;altitude;pressure_sealevel;temperature;humidity
64388;BME280;50709;52.648;4.764;2023-02-28T00:00:33;103346.13;;;9.89;66.21
64388;BME280;50709;52.648;4.764;2023-02-28T00:02:58;103353.44;;;9.98;65.43
64388;BME280;50709;52.648;4.764;2023-02-28T00:05:25;103345.84;;;10.03;65.89
64388;BME280;50709;52.648;4.764;2023-02-28T00:07:51;103348.50;;;10.04;66.51
64388;BME280;50709;52.648;4.764;2023-02-28T00:10:19;103344.88;;;10.01;66.33
64388;BME280;50709;52.648;4.764;2023-02-28T00:12:49;103350.03;;;9.99;66.17
64388;BME280;50709;52.648;4.764;2023-02-28T00:15:16;103337.25;;;9.86;65.64
64388;BME280;50709;52.648;4.764;2023-02-28T00:17:42;103339.44;;;9.96;65.97
64388;BME280;50709;52.648;4.764;2023-02-28T00:20:08;103345.81;;;9.83;66.50
64388;BME280;50709;52.648;4.764;2023-02-28T00:22:46;103320.47;;;9.81;66.24
64388;BME280;50709;52.648;4.764;2023-02-28T00:25:15;103323.09;;;9.81;66.27
64388;BME280;50709;52.648;4.764;2023-02-28T00:27:41;103339.03;;;9.87;66.28
64388;BME280;50709;52.648;4.764;2023-02-28T00:30:15;103326.94;;;9.89;66.51
64388;BME280;50709;52.648;4.764;2023-02-28T00:32:44;103323.22;;;9.84;66.79
64388;BME280;50709;52.648;4.764;2023-02-28T00:35:10;103327.00;;;9.90;66.51
64388;BME280;50709;52.648;4.764;2023-02-28T00:37:36;103307.97;;;9.73;66.83
64388;BME280;50709;52.648;4.764;2023-02-28T00:40:02;103330.78;;;9.97;67.45
64388;BME280;50709;52.648;4.764;2023-02-28T00:42:30;103331.19;;;9.87;66.32
64388;BME280;50709;52.648;4.764;2023-02-28T00:44:56;103337.91;;;10.01;66.80
64388;BME280;50709;52.648;4.764;2023-02-28T00:47:21;103337.09;;;10.02;67.02
64388;BME280;50709;52.648;4.764;2023-02-28T00:49:46;103333.13;;;9.91;67.21
64388;BME280;50709;52.648;4.764;2023-02-28T00:52:12;103324.88;;;9.82;66.61
64388;BME280;50709;52.648;4.764;2023-02-28T00:54:37;103333.88;;;9.88;67.28
64388;BME280;50709;52.648;4.764;2023-02-28T00:57:02;103326.13;;;9.90;67.38
64388;BME280;50709;52.648;4.764;2023-02-28T00:59:28;103265.22;;;9.32;67.34
64388;BME280;50709;52.648;4.764;2023-02-28T01:01:53;103326.78;;;9.66;67.47
64388;BME280;50709;52.648;4.764;2023-02-28T01:04:19;103324.19;;;9.86;66.76
64388;BME280;50709;52.648;4.764;2023-02-28T01:06:44;103327.91;;;9.91;66.50
64388;BME280;50709;52.648;4.764;2023-02-28T01:09:11;103338.34;;;9.91;67.03
64388;BME280;50709;52.648;4.764;2023-02-28T01:11:37;103341.41;;;9.82;66.77
64388;BME280;50709;52.648;4.764;2023-02-28T01:14:03;103312.56;;;9.79;67.12
64388;BME280;50709;52.648;4.764;2023-02-28T01:16:29;103311.19;;;9.48;67.19
64388;BME280;50709;52.648;4.764;2023-02-28T01:18:55;103334.63;;;9.86;67.08
64388;BME280;50709;52.648;4.764;2023-02-28T01:21:21;103327.50;;;9.82;67.43
64388;BME280;50709;52.648;4.764;2023-02-28T01:23:47;103270.56;;;9.53;67.53
64388;BME280;50709;52.648;4.764;2023-02-28T01:28:38;103322.66;;;10.10;66.52
64388;BME280;50709;52.648;4.764;2023-02-28T01:31:04;103326.53;;;9.99;66.72
64388;BME280;50709;52.648;4.764;2023-02-28T01:33:31;103302.81;;;9.75;67.27
64388;BME280;50709;52.648;4.764;2023-02-28T01:36:09;103313.47;;;9.60;67.53
64388;BME280;50709;52.648;4.764;2023-02-28T01:38:35;103311.69;;;9.79;67.42
64388;BME280;50709;52.648;4.764;2023-02-28T01:41:01;103246.53;;;9.41;67.50
64388;BME280;50709;52.648;4.764;2023-02-28T01:46:13;103294.50;;;9.84;66.84
64388;BME280;50709;52.648;4.764;2023-02-28T01:49:09;103307.28;;;9.97;66.67
64388;BME280;50709;52.648;4.764;2023-02-28T01:51:46;103298.56;;;9.97;67.17
64388;BME280;50709;52.648;4.764;2023-02-28T01:54:23;103306.03;;;9.89;67.21
64388;BME280;50709;52.648;4.764;2023-02-28T01:56:55;103290.13;;;9.83;66.79
64388;BME280;50709;52.648;4.764;2023-02-28T01:59:31;103308.03;;;9.94;67.21
64388;BME280;50709;52.648;4.764;2023-02-28T02:01:58;103278.78;;;9.63;67.39
64388;BME280;50709;52.648;4.764;2023-02-28T02:04:27;103306.53;;;10.00;67.82
64388;BME280;50709;52.648;4.764;2023-02-28T02:06:58;103301.94;;;9.94;67.58
64388;BME280;50709;52.648;4.764;2023-02-28T02:09:24;103286.59;;;9.82;67.54
64388;BME280;50709;52.648;4.764;2023-02-28T02:11:49;103279.41;;;9.76;66.94
64388;BME280;50709;52.648;4.764;2023-02-28T02:17:19;103286.78;;;9.85;67.50
64388;BME280;50709;52.648;4.764;2023-02-28T02:26:07;103273.50;;;9.81;67.89
64388;BME280;50709;52.648;4.764;2023-02-28T02:28:56;103267.41;;;9.80;67.58
64388;BME280;50709;52.648;4.764;2023-02-28T02:31:55;103262.66;;;9.71;67.71
64388;BME280;50709;52.648;4.764;2023-02-28T02:39:53;103252.03;;;9.88;68.39
64388;BME280;50709;52.648;4.764;2023-02-28T02:42:38;103241.00;;;9.74;67.85
64388;BME280;50709;52.648;4.764;2023-02-28T02:47:43;103263.06;;;9.81;68.33
64388;BME280;50709;52.648;4.764;2023-02-28T02:50:14;103257.25;;;9.88;68.11
64388;BME280;50709;52.648;4.764;2023-02-28T02:52:45;103229.34;;;9.66;68.34
64388;BME280;50709;52.648;4.764;2023-02-28T02:55:17;103243.63;;;9.74;67.71
64388;BME280;50709;52.648;4.764;2023-02-28T02:57:58;103211.22;;;9.49;68.40
64388;BME280;50709;52.648;4.764;2023-02-28T03:00:31;103247.63;;;9.66;68.39
64388;BME280;50709;52.648;4.764;2023-02-28T03:03:01;103262.66;;;9.71;68.25
64388;BME280;50709;52.648;4.764;2023-02-28T03:05:30;103261.13;;;9.76;68.89
64388;BME280;50709;52.648;4.764;2023-02-28T03:07:58;103249.41;;;9.67;68.26
64388;BME280;50709;52.648;4.764;2023-02-28T03:15:55;103245.34;;;9.73;68.09
64388;BME280;50709;52.648;4.764;2023-02-28T03:18:32;103238.91;;;9.65;68.33
64388;BME280;50709;52.648;4.764;2023-02-28T03:23:52;103266.56;;;9.62;68.34
64388;BME280;50709;52.648;4.764;2023-02-28T03:26:22;103267.78;;;9.70;67.85
64388;BME280;50709;52.648;4.764;2023-02-28T03:34:01;103258.06;;;9.66;68.02
64388;BME280;50709;52.648;4.764;2023-02-28T03:36:30;103231.34;;;9.52;67.97
64388;BME280;50709;52.648;4.764;2023-02-28T03:39:04;103265.59;;;9.79;68.53
64388;BME280;50709;52.648;4.764;2023-02-28T03:41:48;103273.66;;;9.64;68.05
64388;BME280;50709;52.648;4.764;2023-02-28T03:44:19;103266.91;;;9.69;68.80
64388;BME280;50709;52.648;4.764;2023-02-28T03:46:51;103263.91;;;9.60;68.09
64388;BME280;50709;52.648;4.764;2023-02-28T03:51:46;103265.94;;;9.67;68.67
64388;BME280;50709;52.648;4.764;2023-02-28T03:54:19;103224.06;;;9.45;68.30
64388;BME280;50709;52.648;4.764;2023-02-28T03:56:59;103260.84;;;9.70;68.45
64388;BME280;50709;52.648;4.764;2023-02-28T03:59:30;103242.41;;;9.46;68.21
64388;BME280;50709;52.648;4.764;2023-02-28T04:01:58;103262.38;;;9.65;67.80
64388;BME280;50709;52.648;4.764;2023-02-28T04:04:24;103251.38;;;9.72;67.88
64388;BME280;50709;52.648;4.764;2023-02-28T04:06:53;103257.00;;;9.62;67.70
64388;BME280;50709;52.648;4.764;2023-02-28T04:09:26;103258.19;;;9.69;69.03
64388;BME280;50709;52.648;4.764;2023-02-28T04:11:53;103253.47;;;9.60;68.34
64388;BME280;50709;52.648;4.764;2023-02-28T04:14:18;103229.69;;;9.34;68.97
64388;BME280;50709;52.648;4.764;2023-02-28T04:16:44;103248.59;;;9.68;69.03
64388;BME280;50709;52.648;4.764;2023-02-28T04:19:11;103243.84;;;9.59;69.22
64388;BME280;50709;52.648;4.764;2023-02-28T04:21:42;103256.19;;;9.63;68.99
64388;BME280;50709;52.648;4.764;2023-02-28T04:24:11;103260.25;;;9.56;68.73
64388;BME280;50709;52.648;4.764;2023-02-28T04:26:40;103241.72;;;9.50;69.97
64388;BME280;50709;52.648;4.764;2023-02-28T04:29:06;103246.56;;;9.62;69.81
64388;BME280;50709;52.648;4.764;2023-02-28T04:31:33;103254.19;;;9.77;69.83
64388;BME280;50709;52.648;4.764;2023-02-28T04:33:59;103227.63;;;9.66;69.81
64388;BME280;50709;52.648;4.764;2023-02-28T04:36:25;103224.94;;;9.65;69.60
64388;BME280;50709;52.648;4.764;2023-02-28T04:38:50;103245.13;;;9.69;69.66
64388;BME280;50709;52.648;4.764;2023-02-28T04:41:16;103246.44;;;9.79;69.73
64388;BME280;50709;52.648;4.764;2023-02-28T04:43:41;103254.75;;;9.70;70.45
64388;BME280;50709;52.648;4.764;2023-02-28T04:46:07;103240.66;;;9.86;70.29
64388;BME280;50709;52.648;4.764;2023-02-28T04:48:35;103200.38;;;9.59;70.23
64388;BME280;50709;52.648;4.764;2023-02-28T04:51:02;103217.75;;;9.59;70.16
64388;BME280;50709;52.648;4.764;2023-02-28T04:53:28;103213.63;;;9.64;70.08
64388;BME280;50709;52.648;4.764;2023-02-28T04:55:54;103251.91;;;9.85;70.34
64388;BME280;50709;52.648;4.764;2023-02-28T04:58:20;103241.00;;;9.74;70.31
64388;BME280;50709;52.648;4.764;2023-02-28T05:00:48;103260.28;;;9.97;69.91
64388;BME280;50709;52.648;4.764;2023-02-28T05:03:13;103231.50;;;9.74;70.54
64388;BME280;50709;52.648;4.764;2023-02-28T05:05:39;103253.72;;;9.86;70.36
64388;BME280;50709;52.648;4.764;2023-02-28T05:08:04;103246.97;;;9.91;70.22
64388;BME280;50709;52.648;4.764;2023-02-28T05:10:31;103234.16;;;9.76;69.82
64388;BME280;50709;52.648;4.764;2023-02-28T05:12:57;103238.91;;;9.65;70.43
64388;BME280;50709;52.648;4.764;2023-02-28T05:15:24;103178.28;;;9.32;70.74
64388;BME280;50709;52.648;4.764;2023-02-28T05:17:50;103211.31;;;9.51;70.71
64388;BME280;50709;52.648;4.764;2023-02-28T05:20:15;103222.09;;;9.58;71.15
64388;BME280;50709;52.648;4.764;2023-02-28T05:22:42;103238.47;;;9.75;70.57
64388;BME280;50709;52.648;4.764;2023-02-28T05:25:11;103241.53;;;9.86;70.48
64388;BME280;50709;52.648;4.764;2023-02-28T05:27:37;103238.47;;;9.75;70.95
64388;BME280;50709;52.648;4.764;2023-02-28T05:30:03;103244.41;;;9.52;71.39
64388;BME280;50709;52.648;4.764;2023-02-28T05:32:29;103241.97;;;9.56;71.11
64388;BME280;50709;52.648;4.764;2023-02-28T05:34:54;103220.22;;;9.56;71.13
64388;BME280;50709;52.648;4.764;2023-02-28T05:37:20;103227.44;;;9.62;71.24
64388;BME280;50709;52.648;4.764;2023-02-28T05:39:46;103242.13;;;9.79;71.10
64388;BME280;50709;52.648;4.764;2023-02-28T05:42:11;103242.75;;;9.73;71.40
64388;BME280;50709;52.648;4.764;2023-02-28T05:44:36;103240.06;;;9.72;71.10
64388;BME280;50709;52.648;4.764;2023-02-28T05:47:02;103252.84;;;9.66;71.70
64388;BME280;50709;52.648;4.764;2023-02-28T05:49:27;103228.06;;;9.56;71.19
64388;BME280;50709;52.648;4.764;2023-02-28T05:51:53;103245.13;;;9.69;71.54
64388;BME280;50709;52.648;4.764;2023-02-28T05:54:18;103238.34;;;9.72;70.94
64388;BME280;50709;52.648;4.764;2023-02-28T05:56:44;103223.84;;;9.59;70.82
64388;BME280;50709;52.648;4.764;2023-02-28T05:59:14;103243.03;;;9.60;70.89
64388;BME280;50709;52.648;4.764;2023-02-28T06:01:44;103232.84;;;9.66;71.68
64388;BME280;50709;52.648;4.764;2023-02-28T06:04:14;103229.69;;;9.73;71.72
64388;BME280;50709;52.648;4.764;2023-02-28T06:06:43;103213.50;;;9.61;71.58
64388;BME280;50709;52.648;4.764;2023-02-28T06:09:10;103221.78;;;9.52;71.24
64388;BME280;50709;52.648;4.764;2023-02-28T06:11:35;103225.09;;;9.68;72.21
64388;BME280;50709;52.648;4.764;2023-02-28T06:14:01;103243.56;;;9.92;72.07
64388;BME280;50709;52.648;4.764;2023-02-28T06:16:28;103230.34;;;9.89;71.34
64388;BME280;50709;52.648;4.764;2023-02-28T06:18:56;103240.31;;;10.19;70.32
64388;BME280;50709;52.648;4.764;2023-02-28T06:21:22;103253.72;;;10.69;68.68
64388;BME280;50709;52.648;4.764;2023-02-28T06:23:48;103251.00;;;10.88;67.67
64388;BME280;50709;52.648;4.764;2023-02-28T06:26:13;103240.50;;;10.87;67.23
64388;BME280;50709;52.648;4.764;2023-02-28T06:28:39;103229.53;;;11.20;66.32
64388;BME280;50709;52.648;4.764;2023-02-28T06:31:12;103242.41;;;11.14;66.26
64388;BME280;50709;52.648;4.764;2023-02-28T06:33:39;103228.41;;;11.60;64.96
64388;BME280;50709;52.648;4.764;2023-02-28T06:36:06;103215.03;;;11.28;64.54
64388;BME280;50709;52.648;4.764;2023-02-28T06:38:32;103246.69;;;11.58;65.55
64388;BME280;50709;52.648;4.764;2023-02-28T06:40:59;103252.94;;;11.15;66.22
64388;BME280;50709;52.648;4.764;2023-02-28T06:43:27;103248.69;;;10.73;67.95
64388;BME280;50709;52.648;4.764;2023-02-28T06:45:57;103210.75;;;10.62;66.74
64388;BME280;50709;52.648;4.764;2023-02-28T06:48:23;103192.66;;;9.82;66.79
64388;BME280;50709;52.648;4.764;2023-02-28T06:50:49;103261.41;;;9.63;69.37
64388;BME280;50709;52.648;4.764;2023-02-28T06:53:15;103254.56;;;10.68;68.08
64388;BME280;50709;52.648;4.764;2023-02-28T06:55:41;103232.47;;;10.82;66.77
64388;BME280;50709;52.648;4.764;2023-02-28T06:58:07;103193.69;;;9.66;69.26
64388;BME280;50709;52.648;4.764;2023-02-28T07:00:45;103245.84;;;9.07;68.36
64388;BME280;50709;52.648;4.764;2023-02-28T07:03:12;103248.38;;;7.50;72.09
64388;BME280;50709;52.648;4.764;2023-02-28T07:05:38;103217.59;;;8.79;74.07
64388;BME280;50709;52.648;4.764;2023-02-28T07:08:05;103260.81;;;10.94;66.44
64388;BME280;50709;52.648;4.764;2023-02-28T07:10:32;103250.53;;;10.13;64.69
64388;BME280;50709;52.648;4.764;2023-02-28T07:12:58;103261.69;;;9.50;66.80
64388;BME280;50709;52.648;4.764;2023-02-28T07:15:23;103253.28;;;9.18;70.73
64388;BME280;50709;52.648;4.764;2023-02-28T07:17:49;103273.06;;;8.77;70.40
64388;BME280;50709;52.648;4.764;2023-02-28T07:20:15;103272.41;;;9.75;68.04
64388;BME280;50709;52.648;4.764;2023-02-28T07:22:40;103269.91;;;9.98;66.90
64388;BME280;50709;52.648;4.764;2023-02-28T07:25:07;103271.66;;;8.65;68.75
64388;BME280;50709;52.648;4.764;2023-02-28T07:27:32;103226.84;;;8.20;72.01
64388;BME280;50709;52.648;4.764;2023-02-28T07:29:59;103272.53;;;8.66;70.29
64388;BME280;50709;52.648;4.764;2023-02-28T07:32:27;103236.56;;;8.77;69.90
64388;BME280;50709;52.648;4.764;2023-02-28T07:34:55;103257.72;;;8.65;70.67
64388;BME280;50709;52.648;4.764;2023-02-28T07:37:20;103290.44;;;8.59;69.72
64388;BME280;50709;52.648;4.764;2023-02-28T07:39:46;103277.16;;;7.86;70.93
64388;BME280;50709;52.648;4.764;2023-02-28T07:42:11;103299.41;;;9.01;70.20
64388;BME280;50709;52.648;4.764;2023-02-28T07:44:40;103297.84;;;8.50;66.86
64388;BME280;50709;52.648;4.764;2023-02-28T07:47:10;103303.06;;;8.68;69.09
64388;BME280;50709;52.648;4.764;2023-02-28T07:49:38;103300.50;;;8.70;67.89
64388;BME280;50709;52.648;4.764;2023-02-28T07:52:05;103282.25;;;8.17;72.75
64388;BME280;50709;52.648;4.764;2023-02-28T07:54:31;103302.47;;;7.40;71.00
64388;BME280;50709;52.648;4.764;2023-02-28T07:56:56;103292.44;;;7.63;70.43
64388;BME280;50709;52.648;4.764;2023-02-28T07:59:22;103306.84;;;7.25;72.25
64388;BME280;50709;52.648;4.764;2023-02-28T08:01:47;103300.34;;;8.49;71.84
64388;BME280;50709;52.648;4.764;2023-02-28T08:04:17;103284.09;;;8.20;69.63
64388;BME280;50709;52.648;4.764;2023-02-28T08:06:43;103278.56;;;7.63;70.56
64388;BME280;50709;52.648;4.764;2023-02-28T08:09:09;103299.63;;;8.69;70.28
64388;BME280;50709;52.648;4.764;2023-02-28T08:11:34;103313.81;;;7.74;73.38
64388;BME280;50709;52.648;4.764;2023-02-28T08:14:00;103304.06;;;7.53;70.83
64388;BME280;50709;52.648;4.764;2023-02-28T08:16:25;103310.84;;;8.34;70.68
64388;BME280;50709;52.648;4.764;2023-02-28T08:18:51;103270.31;;;8.04;71.29
64388;BME280;50709;52.648;4.764;2023-02-28T08:21:17;103268.81;;;7.58;70.74
64388;BME280;50709;52.648;4.764;2023-02-28T08:23:43;103312.69;;;7.21;69.55
64388;BME280;50709;52.648;4.764;2023-02-28T08:26:09;103313.16;;;7.45;70.68
64388;BME280;50709;52.648;4.764;2023-02-28T08:28:34;103326.81;;;7.57;73.54
64388;BME280;50709;52.648;4.764;2023-02-28T08:31:00;103330.00;;;7.85;70.42
64388;BME280;50709;52.648;4.764;2023-02-28T08:33:26;103326.19;;;7.78;72.73
64388;BME280;50709;52.648;4.764;2023-02-28T08:35:53;103334.25;;;6.88;72.75
64388;BME280;50709;52.648;4.764;2023-02-28T08:38:19;103337.22;;;7.57;69.95
64388;BME280;50709;52.648;4.764;2023-02-28T08:40:44;103335.25;;;6.61;71.92
64388;BME280;50709;52.648;4.764;2023-02-28T08:43:10;103337.56;;;7.01;72.81
64388;BME280;50709;52.648;4.764;2023-02-28T08:45:35;103335.13;;;7.35;72.58
64388;BME280;50709;52.648;4.764;2023-02-28T08:48:01;103341.13;;;7.49;71.82
64388;BME280;50709;52.648;4.764;2023-02-28T08:50:26;103342.16;;;7.21;70.38
64388;BME280;50709;52.648;4.764;2023-02-28T08:52:52;103336.53;;;8.61;69.88
64388;BME280;50709;52.648;4.764;2023-02-28T08:55:17;103339.72;;;7.24;69.46
64388;BME280;50709;52.648;4.764;2023-02-28T08:57:42;103346.69;;;7.40;70.77
64388;BME280;50709;52.648;4.764;2023-02-28T09:00:08;103331.63;;;8.16;70.97
64388;BME280;50709;52.648;4.764;2023-02-28T09:02:35;103336.19;;;8.89;69.95
64388;BME280;50709;52.648;4.764;2023-02-28T09:05:00;103336.50;;;7.29;71.48
64388;BME280;50709;52.648;4.764;2023-02-28T09:07:26;103318.94;;;8.05;71.41
64388;BME280;50709;52.648;4.764;2023-02-28T09:09:51;103336.31;;;8.56;69.05
64388;BME280;50709;52.648;4.764;2023-02-28T09:12:21;103335.75;;;8.45;68.68
64388;BME280;50709;52.648;4.764;2023-02-28T09:14:47;103342.38;;;6.95;69.33
64388;BME280;50709;52.648;4.764;2023-02-28T09:17:12;103330.97;;;7.70;71.18
64388;BME280;50709;52.648;4.764;2023-02-28T09:19:38;103325.69;;;9.05;67.11
64388;BME280;50709;52.648;4.764;2023-02-28T09:22:03;103344.78;;;8.52;68.04
64388;BME280;50709;52.648;4.764;2023-02-28T09:24:29;103347.72;;;8.25;70.12
64388;BME280;50709;52.648;4.764;2023-02-28T09:26:56;103350.88;;;8.87;68.76
64388;BME280;50709;52.648;4.764;2023-02-28T09:29:22;103346.94;;;8.95;68.78
64388;BME280;50709;52.648;4.764;2023-02-28T09:31:47;103339.53;;;8.68;68.24
64388;BME280;50709;52.648;4.764;2023-02-28T09:34:13;103350.44;;;7.46;67.74
64388;BME280;50709;52.648;4.764;2023-02-28T09:36:38;103339.72;;;7.24;70.48
64388;BME280;50709;52.648;4.764;2023-02-28T09:39:04;103354.69;;;6.82;68.04
64388;BME280;50709;52.648;4.764;2023-02-28T09:41:39;103344.06;;;8.05;71.27
64388;BME280;50709;52.648;4.764;2023-02-28T09:44:18;103341.13;;;8.83;67.52
64388;BME280;50709;52.648;4.764;2023-02-28T09:46:48;103353.25;;;7.65;69.45
64388;BME280;50709;52.648;4.764;2023-02-28T09:49:20;103355.53;;;7.92;70.04
64388;BME280;50709;52.648;4.764;2023-02-28T09:51:53;103362.97;;;8.68;67.62
64388;BME280;50709;52.648;4.764;2023-02-28T09:54:24;103359.78;;;9.28;65.96
64388;BME280;50709;52.648;4.764;2023-02-28T09:59:50;103353.88;;;8.44;68.48
64388;BME280;50709;52.648;4.764;2023-02-28T10:08:16;103339.22;;;9.91;66.19
64388;BME280;50709;52.648;4.764;2023-02-28T10:10:50;103303.03;;;9.99;65.02
64388;BME280;50709;52.648;4.764;2023-02-28T10:16:19;103351.06;;;10.63;65.54
64388;BME280;50709;52.648;4.764;2023-02-28T10:18:50;103347.56;;;10.84;64.61
64388;BME280;50709;52.648;4.764;2023-02-28T10:21:21;103346.59;;;10.82;64.72
64388;BME280;50709;52.648;4.764;2023-02-28T10:23:48;103348.41;;;10.83;65.58
64388;BME280;50709;52.648;4.764;2023-02-28T10:26:16;103348.81;;;10.72;66.75
64388;BME280;50709;52.648;4.764;2023-02-28T10:28:42;103343.84;;;10.57;67.04
64388;BME280;50709;52.648;4.764;2023-02-28T10:31:16;103325.63;;;10.59;69.37
64388;BME280;50709;52.648;4.764;2023-02-28T10:33:42;103343.22;;;10.84;68.82
64388;BME280;50709;52.648;4.764;2023-02-28T10:36:18;103336.47;;;10.08;67.79
64388;BME280;50709;52.648;4.764;2023-02-28T10:38:46;103326.38;;;10.56;68.21
64388;BME280;50709;52.648;4.764;2023-02-28T10:41:26;103364.19;;;10.86;65.35
64388;BME280;50709;52.648;4.764;2023-02-28T10:43:52;103351.13;;;11.07;64.88
64388;BME280;50709;52.648;4.764;2023-02-28T10:46:19;103341.00;;;10.93;62.37
64388;BME280;50709;52.648;4.764;2023-02-28T10:49:20;103339.38;;;11.41;63.42
64388;BME280;50709;52.648;4.764;2023-02-28T10:51:50;103337.22;;;11.31;62.70
64388;BME280;50709;52.648;4.764;2023-02-28T10:54:32;103324.75;;;11.02;60.60
64388;BME280;50709;52.648;4.764;2023-02-28T10:57:20;103342.63;;;11.35;62.61
64388;BME280;50709;52.648;4.764;2023-02-28T10:59:51;103331.44;;;11.62;61.67
64388;BME280;50709;52.648;4.764;2023-02-28T11:02:34;103345.22;;;11.13;60.68
64388;BME280;50709;52.648;4.764;2023-02-28T11:05:00;103335.22;;;11.02;59.18
64388;BME280;50709;52.648;4.764;2023-02-28T11:07:26;103339.13;;;10.91;60.04
64388;BME280;50709;52.648;4.764;2023-02-28T11:09:55;103341.13;;;11.19;59.01
64388;BME280;50709;52.648;4.764;2023-02-28T11:15:26;103341.25;;;9.59;61.62
64388;BME280;50709;52.648;4.764;2023-02-28T11:18:21;103338.44;;;10.33;59.43
64388;BME280;50709;52.648;4.764;2023-02-28T11:20:52;103328.56;;;8.57;56.95
64388;BME280;50709;52.648;4.764;2023-02-28T11:23:19;103344.38;;;9.15;59.12
64388;BME280;50709;52.648;4.764;2023-02-28T11:25:51;103306.69;;;8.37;59.88
64388;BME280;50709;52.648;4.764;2023-02-28T11:28:33;103336.03;;;8.86;62.03
64388;BME280;50709;52.648;4.764;2023-02-28T11:33:52;103350.06;;;9.62;60.09
64388;BME280;50709;52.648;4.764;2023-02-28T11:36:25;103309.78;;;8.47;57.24
64388;BME280;50709;52.648;4.764;2023-02-28T11:38:53;103343.53;;;9.71;63.63
64388;BME280;50709;52.648;4.764;2023-02-28T11:52:54;103304.56;;;8.99;62.53
64388;BME280;50709;52.648;4.764;2023-02-28T11:55:36;103318.56;;;8.32;59.42
64388;BME280;50709;52.648;4.764;2023-02-28T12:06:36;103329.31;;;10.04;61.79
64388;BME280;50709;52.648;4.764;2023-02-28T12:11:57;103323.91;;;9.99;60.12
64388;BME280;50709;52.648;4.764;2023-02-28T12:22:47;103309.66;;;10.12;61.11
64388;BME280;50709;52.648;4.764;2023-02-28T12:25:26;103282.59;;;9.32;58.88
64388;BME280;50709;52.648;4.764;2023-02-28T12:27:55;103297.31;;;10.91;61.28
64388;BME280;50709;52.648;4.764;2023-02-28T12:30:28;103303.72;;;10.99;59.86
64388;BME280;50709;52.648;4.764;2023-02-28T12:33:03;103287.56;;;10.87;58.79
64388;BME280;50709;52.648;4.764;2023-02-28T12:35:37;103303.28;;;11.56;58.66
64388;BME280;50709;52.648;4.764;2023-02-28T12:38:12;103297.34;;;11.85;56.12
64388;BME280;50709;52.648;4.764;2023-02-28T12:40:51;103290.28;;;10.90;56.24
64388;BME280;50709;52.648;4.764;2023-02-28T12:43:19;103253.69;;;10.26;55.79
64388;BME280;50709;52.648;4.764;2023-02-28T12:45:50;103276.44;;;9.88;51.01
64388;BME280;50709;52.648;4.764;2023-02-28T12:48:31;103275.50;;;9.67;55.92
64388;BME280;50709;52.648;4.764;2023-02-28T12:51:03;103269.69;;;10.34;60.56
64388;BME280;50709;52.648;4.764;2023-02-28T12:58:49;103289.81;;;10.16;50.42
64388;BME280;50709;52.648;4.764;2023-02-28T13:04:14;103264.75;;;10.40;55.49
64388;BME280;50709;52.648;4.764;2023-02-28T13:09:26;103254.63;;;11.15;55.32
64388;BME280;50709;52.648;4.764;2023-02-28T13:11:55;103279.13;;;9.70;52.25
64388;BME280;50709;52.648;4.764;2023-02-28T13:14:29;103261.59;;;10.28;54.64
64388;BME280;50709;52.648;4.764;2023-02-28T13:17:11;103266.94;;;10.10;54.14
64388;BME280;50709;52.648;4.764;2023-02-28T13:22:40;103269.50;;;11.63;52.48
64388;BME280;50709;52.648;4.764;2023-02-28T13:27:48;103243.75;;;9.38;51.66
64388;BME280;50709;52.648;4.764;2023-02-28T13:33:31;103276.19;;;9.63;55.72
64388;BME280;50709;52.648;4.764;2023-02-28T13:44:11;103268.34;;;9.43;49.41
64388;BME280;50709;52.648;4.764;2023-02-28T13:51:49;103249.88;;;10.18;55.80
64388;BME280;50709;52.648;4.764;2023-02-28T14:05:17;103245.28;;;9.33;46.71
64388;BME280;50709;52.648;4.764;2023-02-28T14:07:49;103256.53;;;9.32;50.71
64388;BME280;50709;52.648;4.764;2023-02-28T14:10:48;103241.88;;;9.16;52.90
64388;BME280;50709;52.648;4.764;2023-02-28T14:15:46;103256.03;;;9.21;47.11
64388;BME280;50709;52.648;4.764;2023-02-28T14:21:21;103235.56;;;9.89;51.94
64388;BME280;50709;52.648;4.764;2023-02-28T14:32:15;103247.06;;;8.96;46.44
64388;BME280;50709;52.648;4.764;2023-02-28T14:37:16;103217.88;;;8.67;48.66
64388;BME280;50709;52.648;4.764;2023-02-28T14:39:44;103257.53;;;9.16;51.88
64388;BME280;50709;52.648;4.764;2023-02-28T14:44:55;103214.72;;;10.73;54.78
64388;BME280;50709;52.648;4.764;2023-02-28T14:47:36;103231.03;;;10.68;54.78
64388;BME280;50709;52.648;4.764;2023-02-28T14:50:03;103230.72;;;10.18;52.14
64388;BME280;50709;52.648;4.764;2023-02-28T14:52:31;103212.88;;;9.67;52.99
64388;BME280;50709;52.648;4.764;2023-02-28T14:55:00;103170.50;;;10.15;54.34
64388;BME280;50709;52.648;4.764;2023-02-28T14:57:33;103235.34;;;10.67;52.37
64388;BME280;50709;52.648;4.764;2023-02-28T15:00:22;103221.41;;;9.84;48.94
64388;BME280;50709;52.648;4.764;2023-02-28T15:02:49;103220.53;;;9.83;53.88
64388;BME280;50709;52.648;4.764;2023-02-28T15:07:47;103199.88;;;10.51;53.18
64388;BME280;50709;52.648;4.764;2023-02-28T15:10:23;103200.53;;;10.24;46.67
64388;BME280;50709;52.648;4.764;2023-02-28T15:13:21;103236.63;;;10.14;48.46
64388;BME280;50709;52.648;4.764;2023-02-28T15:18:26;103234.47;;;10.24;53.06
64388;BME280;50709;52.648;4.764;2023-02-28T15:20:54;103217.94;;;9.83;48.29
64388;BME280;50709;52.648;4.764;2023-02-28T15:23:21;103247.22;;;9.19;46.59
64388;BME280;50709;52.648;4.764;2023-02-28T15:25:47;103218.31;;;9.52;47.57
64388;BME280;50709;52.648;4.764;2023-02-28T15:28:19;103240.59;;;9.25;49.49
64388;BME280;50709;52.648;4.764;2023-02-28T15:30:59;103229.41;;;9.28;45.96
64388;BME280;50709;52.648;4.764;2023-02-28T15:33:27;103216.66;;;9.34;48.23
64388;BME280;50709;52.648;4.764;2023-02-28T15:36:15;103231.50;;;9.96;50.48
64388;BME280;50709;52.648;4.764;2023-02-28T15:38:42;103190.97;;;9.63;46.76
64388;BME280;50709;52.648;4.764;2023-02-28T15:41:22;103228.28;;;9.23;44.21
64388;BME280;50709;52.648;4.764;2023-02-28T15:43:48;103212.22;;;9.14;47.19